Time;durP1;ratioP1;P1;durP2;ratioP2;P2;SDS_P1;SDS_P2;PMS_P1;PMS_P2;Temp;Humidity;BMP_temperature;BMP_pressure;BME280_temperature;BME280_humidity;BME280_pressure;Samples;Min_cycle;Max_cycle;Signal;HPM_P1;HPM_P2
2022/09/28 00:00:49;;;;;;;21.10;14.32;;;;;;;14.41;82.90;94242.63;5097449;28;20042;-77
2022/09/28 00:03:14;;;;;;;20.55;14.07;;;;;;;14.60;83.05;94245.66;5096921;28;20123;-77
2022/09/28 00:05:40;;;;;;;34.17;13.85;;;;;;;14.37;83.44;94217.66;5077873;28;20111;-76
2022/09/28 00:08:05;;;;;;;22.58;13.18;;;;;;;14.06;82.64;94221.34;5089278;28;20039;-76
2022/09/28 00:10:31;;;;;;;19.02;11.80;;;;;;;14.51;83.14;94255.59;5098956;28;20036;-77
2022/09/28 00:12:59;;;;;;;17.60;12.10;;;;;;;14.10;82.38;94182.31;5097762;28;20391;-77
2022/09/28 00:15:24;;;;;;;16.13;11.90;;;;;;;13.86;82.31;94166.06;5093705;28;20055;-77
2022/09/28 00:17:50;;;;;;;18.15;12.95;;;;;;;14.01;83.82;94210.09;5112412;28;20035;-76
2022/09/28 00:20:16;;;;;;;19.25;12.23;;;;;;;14.25;82.55;94229.78;5111471;28;20030;-76
2022/09/28 00:22:42;;;;;;;19.88;11.70;;;;;;;14.51;82.66;94244.91;5079593;28;20516;-77
2022/09/28 00:25:08;;;;;;;17.02;11.75;;;;;;;14.53;82.38;94262.19;5096151;28;20036;-76
2022/09/28 00:27:33;;;;;;;19.80;11.93;;;;;;;14.40;82.98;94249.06;5109585;28;20063;-77
2022/09/28 00:29:59;;;;;;;24.77;12.05;;;;;;;14.48;82.87;94243.69;5095590;28;20048;-77
2022/09/28 00:32:25;;;;;;;19.40;11.75;;;;;;;14.39;82.40;94255.47;5081312;28;20063;-76
2022/09/28 00:34:50;;;;;;;20.10;11.55;;;;;;;14.04;82.56;94191.56;5084568;28;20533;-77
2022/09/28 00:37:18;;;;;;;18.17;12.80;;;;;;;14.43;82.46;94259.84;5101638;28;20035;-77
2022/09/28 00:39:44;;;;;;;17.70;11.27;;;;;;;14.12;81.29;94198.75;5101813;28;20425;-76
2022/09/28 00:42:15;;;;;;;23.35;12.50;;;;;;;13.96;81.93;94179.03;5086427;28;20489;-76
2022/09/28 00:44:42;;;;;;;19.98;11.40;;;;;;;14.44;81.24;94260.63;5109210;28;20043;-77
2022/09/28 00:47:26;;;;;;;24.95;11.55;;;;;;;14.32;81.17;94250.63;5078610;28;20391;-76
2022/09/28 00:50:03;;;;;;;22.30;11.50;;;;;;;14.32;82.22;94250.63;5088804;28;20048;-76
2022/09/28 00:52:47;;;;;;;27.10;12.68;;;;;;;14.39;82.42;94258.16;5090431;28;20039;-76
2022/09/28 00:55:17;;;;;;;27.75;11.63;;;;;;;13.57;82.32;94179.28;5098601;28;20078;-76
2022/09/28 00:57:50;;;;;;;25.75;12.10;;;;;;;13.76;84.38;94220.47;5103156;28;20035;-76
2022/09/28 01:00:15;;;;;;;84.90;16.95;;;;;;;13.79;85.21;94219.06;5086533;28;20092;-76
2022/09/28 01:02:43;;;;;;;100.47;18.02;;;;;;;13.88;84.84;94225.94;5081387;28;20039;-76
2022/09/28 01:05:10;;;;;;;110.95;18.05;;;;;;;14.17;85.76;94265.25;5107400;28;20446;-76
2022/09/28 01:07:37;;;;;;;192.93;19.42;;;;;;;13.84;85.04;94209.03;5078799;28;20050;-77
2022/09/28 01:10:04;;;;;;;157.77;21.20;;;;;;;14.00;86.15;94227.16;5091826;28;20032;-76
2022/09/28 01:12:29;;;;;;;123.80;18.85;;;;;;;14.18;86.27;94256.16;5083152;28;20510;-76
2022/09/28 01:14:58;;;;;;;89.82;17.15;;;;;;;13.96;86.57;94220.94;5101751;28;20027;-77
2022/09/28 01:17:32;;;;;;;148.80;18.17;;;;;;;14.06;86.08;94261.34;5101581;28;20599;-76
2022/09/28 01:20:46;;;;;;;128.00;15.13;;;;;;;14.08;86.56;94248.47;5083284;28;20032;-77
2022/09/28 01:23:42;;;;;;;159.38;14.27;;;;;;;13.93;86.00;94256.19;5068395;28;20519;-76
2022/09/28 01:26:33;;;;;;;119.15;14.32;;;;;;;13.94;86.82;94261.22;5076476;28;20032;-76
2022/09/28 01:29:17;;;;;;;189.00;16.30;;;;;;;13.82;86.22;94256.50;5107975;28;20075;-76
2022/09/28 01:31:48;;;;;;;97.30;15.30;;;;;;;13.76;87.08;94260.44;5090075;28;20455;-76
2022/09/28 01:34:26;;;;;;;113.68;16.63;;;;;;;13.23;87.99;94228.81;5091410;28;20097;-76
2022/09/28 01:36:56;;;;;;;161.38;15.52;;;;;;;13.15;88.14;94218.94;5106895;28;20044;-76
2022/09/28 01:39:41;;;;;;;118.72;15.00;;;;;;;13.59;87.58;94262.31;5101032;28;20032;-76
2022/09/28 01:42:22;;;;;;;151.70;17.17;;;;;;;13.71;86.26;94281.94;5085172;28;20043;-76
2022/09/28 01:44:50;;;;;;;;;;;;;;;13.78;86.98;94265.47;5106859;28;20501;-76
2022/09/28 01:47:21;;;;;;;66.00;14.75;;;;;;;13.89;86.71;94269.34;5112479;28;19920;-76
2022/09/28 01:49:54;;;;;;;80.00;15.85;;;;;;;13.62;87.16;94240.41;5113265;28;20081;-76
2022/09/28 01:52:23;;;;;;;241.07;18.25;;;;;;;13.87;86.77;94251.03;5095031;28;20031;-76
2022/09/28 01:55:01;;;;;;;236.88;19.60;;;;;;;13.92;86.91;94271.41;5098842;28;20112;-77
2022/09/28 01:57:44;;;;;;;190.10;18.83;;;;;;;13.86;87.13;94270.00;5081607;28;20099;-77
2022/09/28 02:00:13;;;;;;;153.27;16.17;;;;;;;13.61;86.87;94217.50;5106049;28;20092;-77
2022/09/28 02:02:44;;;;;;;113.30;17.15;;;;;;;14.02;86.61;94279.09;5100646;28;20042;-77
2022/09/28 02:05:12;;;;;;;;;;;;;;;13.97;85.93;94268.56;5112644;28;20510;-77
2022/09/28 02:07:44;;;;;;;139.40;16.60;;;;;;;13.87;85.80;94268.91;5111912;28;19998;-77
2022/09/28 02:10:18;;;;;;;119.32;14.00;;;;;;;13.79;84.98;94270.50;5094593;28;20069;-77
2022/09/28 02:12:50;;;;;;;126.82;15.70;;;;;;;13.61;85.59;94279.56;5092519;28;20063;-77
2022/09/28 02:15:24;;;;;;;96.63;16.65;;;;;;;13.77;86.10;94280.66;5098138;28;20562;-77
2022/09/28 02:17:50;;;;;;;122.82;16.60;;;;;;;13.49;86.51;94224.28;5104881;28;20619;-77
2022/09/28 02:20:17;;;;;;;66.18;15.50;;;;;;;13.94;86.57;94285.22;5112205;28;20114;-76
2022/09/28 02:22:47;;;;;;;63.20;14.63;;;;;;;13.90;86.52;94271.72;5093935;28;20118;-77
2022/09/28 02:25:37;;;;;;;121.53;16.83;;;;;;;13.98;86.30;94278.13;5093543;28;20032;-77
2022/09/28 02:28:12;;;;;;;55.22;13.88;;;;;;;13.96;85.40;94268.91;5093324;27;20062;-77
2022/09/28 02:30:40;;;;;;;54.90;14.63;;;;;;;14.08;85.60;94272.47;5100278;27;20043;-77
2022/09/28 02:33:17;;;;;;;53.95;14.88;;;;;;;13.56;85.44;94212.34;5093403;28;20028;-77
2022/09/28 02:35:43;;;;;;;39.05;14.15;;;;;;;13.93;85.19;94274.84;5107272;28;20062;-77
2022/09/28 02:38:13;;;;;;;34.00;14.40;;;;;;;13.60;84.62;94206.06;5084945;28;20066;-77
2022/09/28 02:40:42;;;;;;;43.58;14.80;;;;;;;14.04;85.18;94258.19;5111382;28;20024;-77
2022/09/28 02:43:39;;;;;;;43.97;15.93;;;;;;;13.86;85.18;94256.69;5112028;28;20505;-77
2022/09/28 02:46:31;;;;;;;28.08;14.10;;;;;;;14.15;84.85;94288.00;5111307;28;20080;-77
2022/09/28 02:49:15;;;;;;;;;;;;;;;14.11;84.51;94298.50;5111511;28;20043;-77
2022/09/28 02:51:59;;;;;;;22.75;14.35;;;;;;;14.19;84.17;94284.38;5092516;28;19915;-77
2022/09/28 02:54:38;;;;;;;28.65;15.30;;;;;;;14.16;84.57;94286.91;5107592;28;20409;-77
2022/09/28 02:57:30;;;;;;;22.83;15.57;;;;;;;14.24;84.03;94284.22;5099997;28;20070;-77
2022/09/28 03:00:11;;;;;;;22.55;14.95;;;;;;;14.19;83.76;94295.03;5092699;28;20027;-77
2022/09/28 03:02:48;;;;;;;27.73;13.98;;;;;;;14.09;84.05;94290.03;5119201;27;20035;-77
2022/09/28 03:05:30;;;;;;;29.48;14.73;;;;;;;14.10;84.25;94274.84;5092870;28;20035;-77
2022/09/28 03:08:00;;;;;;;33.80;14.18;;;;;;;13.69;83.53;94265.47;5111740;28;20062;-77
2022/09/28 03:10:53;;;;;;;38.33;15.88;;;;;;;13.83;82.88;94303.38;5081632;28;20032;-77
2022/09/28 03:13:19;;;;;;;29.38;15.43;;;;;;;13.83;85.03;94299.94;5078994;28;20030;-77
2022/09/28 03:15:45;;;;;;;33.38;15.55;;;;;;;13.43;84.53;94254.03;5078169;28;20048;-77
2022/09/28 03:18:10;;;;;;;30.00;15.85;;;;;;;13.32;84.54;94247.44;5077503;28;20153;-77
2022/09/28 03:20:36;;;;;;;31.88;16.10;;;;;;;13.54;84.39;94265.94;5076570;28;20516;-77
2022/09/28 03:23:01;;;;;;;27.05;15.50;;;;;;;13.89;84.17;94315.44;5080350;28;20058;-77
2022/09/28 03:25:27;;;;;;;28.25;16.13;;;;;;;13.13;84.15;94210.47;5097963;28;20062;-77
2022/09/28 03:27:52;;;;;;;25.75;16.13;;;;;;;13.50;83.57;94263.09;5084010;28;20130;-77
2022/09/28 03:30:18;;;;;;;39.08;16.73;;;;;;;13.97;83.59;94321.88;5110109;28;20092;-77
2022/09/28 03:32:43;;;;;;;24.17;14.98;;;;;;;13.97;83.76;94321.88;5086277;28;20044;-76
2022/09/28 03:35:10;;;;;;;22.02;13.43;;;;;;;14.00;83.80;94317.81;5096592;28;20371;-76
2022/09/28 03:37:36;;;;;;;24.60;14.82;;;;;;;13.75;83.27;94285.53;5107502;28;20036;-77
2022/09/28 03:40:02;;;;;;;22.05;14.23;;;;;;;13.55;83.75;94264.06;5081624;28;20032;-76
2022/09/28 03:42:28;;;;;;;28.67;14.57;;;;;;;13.80;84.06;94327.22;5079889;28;20568;-76
2022/09/28 03:44:54;;;;;;;22.42;14.93;;;;;;;13.65;84.02;94298.41;5091854;28;20032;-76
2022/09/28 03:47:20;;;;;;;29.52;15.07;;;;;;;13.71;84.00;94302.47;5081019;28;20059;-76
2022/09/28 03:49:46;;;;;;;22.75;13.80;;;;;;;13.57;83.66;94310.63;5072150;28;20036;-76
2022/09/28 03:52:12;;;;;;;27.08;14.30;;;;;;;13.72;84.00;94310.16;5087798;28;20043;-76
2022/09/28 03:54:38;;;;;;;18.25;12.70;;;;;;;13.74;84.14;94307.94;5117626;27;20463;-76
2022/09/28 03:57:04;;;;;;;21.60;14.02;;;;;;;13.74;83.23;94305.28;5081932;28;20130;-76
2022/09/28 03:59:29;;;;;;;19.92;14.27;;;;;;;13.86;83.62;94326.75;5081216;28;20035;-77
2022/09/28 04:01:55;;;;;;;20.92;14.38;;;;;;;13.13;83.61;94195.28;5100973;28;20035;-77
2022/09/28 04:04:21;;;;;;;22.83;13.85;;;;;;;13.66;83.40;94279.41;5097924;28;20067;-77
2022/09/28 04:06:46;;;;;;;21.83;12.68;;;;;;;13.81;83.66;94288.81;5069184;28;20039;-77
2022/09/28 04:09:12;;;;;;;22.92;13.20;;;;;;;13.88;82.98;94305.13;5084497;28;20032;-78
2022/09/28 04:11:37;;;;;;;19.92;12.95;;;;;;;13.92;82.58;94303.38;5080492;28;20043;-78
2022/09/28 04:14:03;;;;;;;18.10;13.52;;;;;;;13.81;82.74;94267.47;5093856;28;20124;-78
2022/09/28 04:16:28;;;;;;;18.05;13.00;;;;;;;13.69;83.39;94251.38;5074701;28;20039;-78
2022/09/28 04:18:54;;;;;;;22.67;12.32;;;;;;;13.87;82.78;94282.25;5074037;28;20657;-77
2022/09/28 04:21:20;;;;;;;18.77;13.13;;;;;;;13.58;82.62;94226.91;5068116;28;20043;-77
2022/09/28 04:23:47;;;;;;;23.55;13.13;;;;;;;13.99;83.51;94318.91;5090664;28;20478;-77
2022/09/28 04:26:22;;;;;;;18.80;13.40;;;;;;;14.10;83.30;94315.63;5073587;28;20362;-78
2022/09/28 04:31:41;;;;;;;33.33;15.93;;;;;;;13.88;82.87;94271.25;5087922;28;20221;-77
2022/09/28 04:34:07;;;;;;;21.00;15.27;;;;;;;13.97;82.98;94281.09;5079512;28;20161;-78
2022/09/28 04:36:33;;;;;;;32.60;16.52;;;;;;;14.15;82.92;94309.31;5083326;28;20036;-77
2022/09/28 04:38:59;;;;;;;37.33;16.95;;;;;;;14.15;83.03;94309.31;5099859;28;20047;-77
2022/09/28 04:41:25;;;;;;;29.17;16.58;;;;;;;13.94;83.39;94271.09;5077883;28;20036;-77
2022/09/28 04:43:51;;;;;;;29.02;16.38;;;;;;;14.31;83.21;94321.06;5077632;28;20032;-76
2022/09/28 04:46:17;;;;;;;27.73;16.30;;;;;;;14.24;83.14;94320.75;5085903;28;20473;-76
2022/09/28 04:48:43;;;;;;;36.53;16.58;;;;;;;14.16;83.46;94306.34;5098211;28;20043;-77
2022/09/28 04:51:08;;;;;;;28.17;16.45;;;;;;;14.03;82.82;94303.84;5087695;27;20035;-76
2022/09/28 04:53:34;;;;;;;27.65;15.55;;;;;;;14.04;83.04;94303.53;5080956;28;20437;-77
2022/09/28 04:56:03;;;;;;;32.00;16.45;;;;;;;14.20;83.45;94314.47;5100654;27;20109;-77
2022/09/28 04:58:30;;;;;;;31.08;16.85;;;;;;;14.13;83.41;94298.97;5082874;28;20035;-77
2022/09/28 05:00:59;;;;;;;30.25;16.67;;;;;;;13.96;83.24;94263.56;5079821;28;20422;-78
2022/09/28 05:03:25;;;;;;;25.15;16.30;;;;;;;13.44;83.27;94178.34;5099513;27;20736;-77
2022/09/28 05:05:50;;;;;;;34.45;16.63;;;;;;;13.95;83.82;94246.00;5060002;28;20036;-80
2022/09/28 05:08:17;;;;;;;29.85;16.40;;;;;;;13.67;83.21;94217.03;5076094;28;20481;-77
2022/09/28 05:10:43;;;;;;;36.88;17.17;;;;;;;13.75;83.11;94212.78;5078624;28;20677;-81
2022/09/28 05:13:11;;;;;;;41.20;18.55;;;;;;;14.36;83.29;94298.75;5091417;27;20087;-83
2022/09/28 05:15:38;;;;;;;49.05;21.38;;;;;;;14.56;83.04;94324.81;5080497;27;20424;-82
2022/09/28 05:18:09;;;;;;;47.03;22.17;;;;;;;13.67;82.94;94235.69;5095833;27;20043;-81
2022/09/28 05:20:40;;;;;;;38.40;20.55;;;;;;;13.97;84.23;94321.88;5084765;27;20028;-79
2022/09/28 05:23:08;;;;;;;55.55;24.40;;;;;;;13.47;84.75;94258.44;5070704;28;20070;-80
2022/09/28 05:25:34;;;;;;;78.28;29.10;;;;;;;14.00;84.33;94320.47;5095316;27;20071;-79
2022/09/28 05:28:00;;;;;;;68.50;28.15;;;;;;;13.85;83.32;94281.75;5072622;27;20521;-79
2022/09/28 05:30:26;;;;;;;61.78;28.55;;;;;;;14.37;83.08;94345.66;5090590;28;20135;-79
2022/09/28 05:32:52;;;;;;;67.38;29.55;;;;;;;14.13;83.51;94304.28;5071455;28;20031;-80
2022/09/28 05:35:18;;;;;;;51.08;26.42;;;;;;;14.15;83.18;94322.66;5071889;28;20035;-79
2022/09/28 05:37:43;;;;;;;45.28;22.70;;;;;;;13.87;83.69;94291.03;5097504;28;20035;-79
2022/09/28 05:40:09;;;;;;;44.90;24.10;;;;;;;14.23;84.33;94324.53;5074977;27;20391;-80
2022/09/28 05:42:35;;;;;;;47.17;24.90;;;;;;;14.44;83.89;94338.00;5076438;27;20408;-80
2022/09/28 05:45:02;;;;;;;45.15;25.85;;;;;;;14.27;83.96;94293.44;5076406;28;20036;-79
2022/09/28 05:47:28;;;;;;;43.03;24.25;;;;;;;14.49;83.16;94309.28;5077037;28;20040;-79
2022/09/28 05:49:54;;;;;;;46.10;24.52;;;;;;;14.72;83.17;94335.75;5078385;28;20134;-79
2022/09/28 05:52:21;;;;;;;40.67;23.73;;;;;;;14.49;83.11;94298.63;5074440;28;20074;-79
2022/09/28 05:54:46;;;;;;;39.45;22.90;;;;;;;14.25;83.03;94280.44;5093159;27;20037;-79
2022/09/28 05:57:13;;;;;;;41.65;23.63;;;;;;;14.23;82.63;94279.19;5093369;28;20040;-79
2022/09/28 05:59:38;;;;;;;50.58;24.88;;;;;;;14.69;83.55;94334.47;5096386;28;20031;-80
2022/09/28 06:02:05;;;;;;;48.83;23.42;;;;;;;14.65;83.11;94314.88;5054988;28;20057;-80
2022/09/28 06:04:31;;;;;;;38.00;23.42;;;;;;;14.18;83.20;94236.69;5088646;27;20036;-82
2022/09/28 06:08:00;;;;;;;42.67;23.45;;;;;;;14.79;83.66;94322.69;5072278;28;20122;-85
2022/09/28 06:10:07;;;;;;;38.38;24.45;;;;;;;14.03;83.65;94182.00;5073113;27;20307;-79
2022/09/28 06:12:32;;;;;;;39.40;25.65;;;;;;;12.71;83.39;93996.47;5072285;27;20043;-79
2022/09/28 06:15:00;;;;;;;45.00;25.00;;;;;;;14.62;84.05;94296.84;5084050;28;20027;-79
2022/09/28 06:17:25;;;;;;;50.90;27.02;;;;;;;13.80;83.48;94133.47;5069172;28;20065;-79
2022/09/28 06:19:52;;;;;;;39.15;25.45;;;;;;;15.08;83.16;94317.38;5074213;27;20323;-79
2022/09/28 06:22:17;;;;;;;44.25;26.60;;;;;;;15.36;83.27;94363.09;5097140;27;20417;-79
2022/09/28 06:24:42;;;;;;;39.88;26.00;;;;;;;14.85;82.65;94273.34;5057535;28;20037;-79
2022/09/28 06:27:08;;;;;;;51.35;27.05;;;;;;;15.07;82.34;94313.13;5067854;28;20031;-79
2022/09/28 06:29:33;;;;;;;48.30;27.13;;;;;;;14.97;81.57;94292.13;5092706;27;20105;-79
2022/09/28 06:31:59;;;;;;;52.33;27.58;;;;;;;14.43;81.98;94245.72;5073086;28;20070;-79
2022/09/28 06:34:24;;;;;;;34.88;22.95;;;;;;;14.48;81.17;94283.72;5091844;27;20487;-79
2022/09/28 06:36:50;;;;;;;40.45;24.48;;;;;;;14.59;80.60;94279.56;5069067;28;20096;-80
2022/09/28 06:39:15;;;;;;;34.90;21.30;;;;;;;14.99;80.70;94319.28;5073441;28;20471;-79
2022/09/28 06:41:41;;;;;;;29.85;19.73;;;;;;;14.69;80.31;94262.44;5092250;28;20468;-78
2022/09/28 06:44:06;;;;;;;30.83;22.13;;;;;;;15.01;80.47;94306.41;5093553;27;20032;-78
2022/09/28 06:46:31;;;;;;;36.42;21.55;;;;;;;14.87;80.53;94297.84;5083235;27;20600;-79
2022/09/28 06:48:57;;;;;;;33.92;21.63;;;;;;;15.26;80.91;94353.56;5093623;27;20043;-78
2022/09/28 06:51:23;;;;;;;39.25;21.52;;;;;;;15.53;80.86;94371.03;5074591;27;20050;-80
2022/09/28 06:53:52;;;;;;;37.15;21.80;;;;;;;14.72;81.17;94287.69;5070073;27;20042;-83
2022/09/28 06:56:19;;;;;;;31.77;21.25;;;;;;;15.04;80.12;94319.88;5068301;28;20039;-82
2022/09/28 06:58:45;;;;;;;33.28;21.52;;;;;;;14.79;80.17;94263.97;5096523;27;20350;-82
2022/09/28 07:01:10;;;;;;;31.85;20.85;;;;;;;14.72;80.31;94259.13;5093226;27;20047;-82
2022/09/28 07:03:36;;;;;;;30.48;21.85;;;;;;;14.60;79.77;94237.66;5096338;27;20050;-79
2022/09/28 07:06:03;;;;;;;32.28;22.65;;;;;;;14.60;80.03;94249.13;5075331;28;20283;-81
2022/09/28 07:08:28;;;;;;;37.78;24.88;;;;;;;15.24;80.57;94353.09;5071879;28;20028;-79
2022/09/28 07:10:56;;;;;;;46.15;26.60;;;;;;;15.27;80.35;94328.41;5086414;27;20036;-79
2022/09/28 07:13:24;;;;;;;46.70;27.02;;;;;;;14.94;80.15;94282.09;5064012;28;20162;-78
2022/09/28 07:15:54;;;;;;;52.05;31.23;;;;;;;15.26;80.45;94332.19;5089120;27;20077;-77
2022/09/28 07:18:20;;;;;;;60.33;33.55;;;;;;;15.41;80.60;94330.84;5087530;28;20027;-78
2022/09/28 07:20:46;;;;;;;55.45;29.88;;;;;;;15.78;80.29;94374.66;5095096;27;20222;-78
2022/09/28 07:23:11;;;;;;;41.20;27.08;;;;;;;15.42;80.02;94313.69;5093637;27;20028;-78
2022/09/28 07:25:39;;;;;;;36.83;24.25;;;;;;;15.65;79.92;94359.63;5091960;28;20114;-81
2022/09/28 07:28:05;;;;;;;37.00;25.60;;;;;;;15.21;79.98;94291.53;5062213;28;20292;-79
2022/09/28 07:30:33;;;;;;;37.92;24.33;;;;;;;15.59;80.01;94336.88;5096954;27;20035;-79
2022/09/28 07:32:59;;;;;;;36.90;22.95;;;;;;;15.66;79.62;94339.84;5091757;27;20123;-78
2022/09/28 07:35:25;;;;;;;28.67;17.45;;;;;;;15.33;79.34;94284.38;5082801;28;20023;-78
2022/09/28 07:38:02;;;;;;;27.80;17.10;;;;;;;15.61;78.97;94314.09;5077978;28;20039;-79
2022/09/28 07:43:13;;;;;;;23.20;16.27;;;;;;;16.06;79.12;94389.09;5093445;28;20677;-79
2022/09/28 07:45:39;;;;;;;28.60;16.83;;;;;;;15.57;78.70;94294.44;5067111;28;20039;-79
2022/09/28 07:48:05;;;;;;;30.95;18.77;;;;;;;16.13;78.70;94373.28;5072375;28;20039;-78
2022/09/28 07:50:30;;;;;;;25.10;17.02;;;;;;;15.83;79.28;94377.94;5059518;27;20076;-77
2022/09/28 07:52:56;;;;;;;31.20;18.52;;;;;;;15.69;79.67;94326.59;5087425;27;20039;-79
2022/09/28 07:55:22;;;;;;;32.33;18.40;;;;;;;16.14;79.64;94364.16;5057587;28;20082;-81
2022/09/28 07:57:54;;;;;;;35.28;18.20;;;;;;;16.04;79.49;94342.38;5069705;27;20042;-79
2022/09/28 08:00:20;;;;;;;30.98;19.50;;;;;;;15.35;79.76;94263.47;5074844;28;20036;-80
2022/09/28 08:02:47;;;;;;;33.95;19.85;;;;;;;15.86;79.40;94304.31;5061557;28;20028;-79
2022/09/28 08:05:12;;;;;;;36.55;20.83;;;;;;;16.12;79.47;94334.28;5091332;28;20035;-79
2022/09/28 08:07:38;;;;;;;30.83;17.48;;;;;;;16.35;79.13;94374.84;5070678;28;20262;-79
2022/09/28 08:10:04;;;;;;;29.85;17.15;;;;;;;16.57;78.89;94371.00;5092984;27;20103;-79
2022/09/28 08:12:33;;;;;;;34.22;16.15;;;;;;;16.38;78.45;94346.66;5057960;28;20084;-79
2022/09/28 08:14:58;;;;;;;31.65;16.85;;;;;;;15.87;77.90;94262.31;5074861;28;20036;-80
2022/09/28 08:17:24;;;;;;;33.88;15.40;;;;;;;16.82;77.89;94380.69;5094597;28;20057;-79
2022/09/28 08:22:33;;;;;;;24.83;12.35;;;;;;;16.48;77.00;94325.59;5089856;28;20033;-78
2022/09/28 08:24:59;;;;;;;25.23;12.25;;;;;;;16.92;77.50;94382.97;5096026;28;20023;-78
2022/09/28 08:27:24;;;;;;;19.67;10.35;;;;;;;16.45;76.81;94318.22;5073372;28;20024;-78
2022/09/28 08:29:50;;;;;;;19.88;9.30;;;;;;;17.04;77.85;94382.19;5074528;28;20020;-79
2022/09/28 08:32:17;;;;;;;19.63;8.75;;;;;;;16.84;75.57;94346.34;5069264;28;20055;-77
2022/09/28 08:34:43;;;;;;;15.77;6.60;;;;;;;16.94;75.02;94351.25;5091578;28;20355;-78
2022/09/28 08:37:09;;;;;;;18.25;8.05;;;;;;;16.79;76.30;94321.66;5071553;28;20035;-79
2022/09/28 08:39:35;;;;;;;13.90;7.40;;;;;;;17.39;75.99;94385.25;5072185;28;20028;-78
2022/09/28 08:42:14;;;;;;;21.83;8.43;;;;;;;17.31;74.65;94378.09;5079042;28;20508;-79
2022/09/28 08:44:44;;;;;;;13.50;6.55;;;;;;;17.14;75.09;94338.91;5096693;27;20032;-83
2022/09/28 08:50:32;;;;;;;18.45;7.35;;;;;;;17.46;72.97;94387.38;5092671;28;20066;-75
2022/09/28 08:53:10;;;;;;;24.80;7.60;;;;;;;16.89;70.93;94321.25;5057316;28;20473;-82
2022/09/28 08:55:38;;;;;;;22.52;7.50;;;;;;;16.75;71.18;94270.69;5100490;28;20035;-78
2022/09/28 08:58:14;;;;;;;27.20;7.50;;;;;;;17.26;70.95;94360.31;5092198;28;20506;-79
2022/09/28 09:00:51;;;;;;;13.13;5.97;;;;;;;16.48;71.00;94228.47;5075766;28;20477;-79
2022/09/28 09:03:24;;;;;;;16.23;6.45;;;;;;;17.22;72.20;94350.63;5088406;28;20027;-80
2022/09/28 09:06:05;;;;;;;14.00;5.60;;;;;;;17.25;70.51;94357.97;5098101;28;20122;-78
2022/09/28 09:08:45;;;;;;;17.63;6.30;;;;;;;17.23;71.62;94366.38;5078234;28;20464;-78
2022/09/28 09:11:27;;;;;;;13.23;6.03;;;;;;;17.20;70.04;94368.94;5096599;28;20346;-78
2022/09/28 09:13:55;;;;;;;14.93;5.47;;;;;;;17.23;68.66;94371.72;5079588;28;20123;-76
2022/09/28 09:17:06;;;;;;;17.45;5.95;;;;;;;17.28;68.43;94363.47;5092134;28;20475;-77
2022/09/28 09:19:46;;;;;;;18.83;6.30;;;;;;;17.08;69.44;94324.16;5017158;28;20029;-77
2022/09/28 09:22:20;;;;;;;17.60;6.32;;;;;;;17.29;70.10;94361.56;5016818;28;20173;-78
2022/09/28 09:25:17;;;;;;;17.52;5.75;;;;;;;17.33;69.54;94349.81;5049377;28;20044;-78
2022/09/28 09:28:01;;;;;;;18.60;6.70;;;;;;;17.31;72.25;94345.94;5071603;28;20039;-79
2022/09/28 09:30:36;;;;;;;25.38;7.32;;;;;;;16.51;70.49;94227.81;5077640;28;20044;-77
2022/09/28 09:33:30;;;;;;;15.15;5.78;;;;;;;17.28;69.50;94358.09;5097408;27;20308;-80
2022/09/28 09:36:24;;;;;;;15.95;5.10;;;;;;;17.26;68.72;94351.50;5052425;28;20043;-77
2022/09/28 09:38:56;;;;;;;17.33;6.20;;;;;;;17.06;70.52;94301.50;5096348;27;20033;-77
2022/09/28 09:41:40;;;;;;;16.65;5.15;;;;;;;17.18;70.90;94299.59;5083993;28;20659;-77
2022/09/28 09:44:33;;;;;;;13.93;4.55;;;;;;;17.50;69.23;94338.09;5076533;28;20032;-77
2022/09/28 09:47:06;;;;;;;17.33;5.95;;;;;;;17.59;69.00;94336.09;5085319;28;20039;-78
2022/09/28 09:49:44;;;;;;;17.92;6.88;;;;;;;17.56;70.11;94317.97;5085084;28;20070;-78
2022/09/28 09:52:50;;;;;;;20.25;6.70;;;;;;;17.65;70.28;94302.59;5085953;28;20544;-80
2022/09/28 09:55:26;;;;;;;18.38;7.70;;;;;;;18.11;71.52;94281.66;5094636;27;20035;-77
2022/09/28 09:58:17;;;;;;;13.85;5.18;;;;;;;19.31;65.08;94308.09;5093873;28;20032;-78
2022/09/28 10:00:49;;;;;;;16.35;4.60;;;;;;;20.66;63.01;94327.91;5103218;27;20031;-77
2022/09/28 10:03:24;;;;;;;21.27;4.72;;;;;;;21.93;60.03;94331.88;5094245;27;20040;-81
2022/09/28 10:05:57;;;;;;;13.23;4.47;;;;;;;23.01;58.88;94338.19;5081760;28;20554;-77
2022/09/28 10:08:26;;;;;;;13.00;4.82;;;;;;;23.59;56.67;94253.63;5098240;27;20075;-77
2022/09/28 10:11:20;;;;;;;18.95;4.85;;;;;;;25.13;54.98;94331.63;5084155;27;20499;-77
2022/09/28 10:13:48;;;;;;;9.48;3.22;;;;;;;24.93;46.85;94201.81;5057248;27;20506;-78
2022/09/28 10:16:16;;;;;;;9.95;3.10;;;;;;;26.26;44.01;94281.88;5059265;28;20547;-79
2022/09/28 10:18:42;;;;;;;6.30;2.72;;;;;;;26.94;42.78;94264.03;5079130;27;20043;-79
2022/09/28 10:21:17;;;;;;;7.80;2.88;;;;;;;27.96;41.68;94327.00;5085437;28;20027;-78
2022/09/28 10:23:43;;;;;;;6.78;3.30;;;;;;;28.41;39.32;94325.75;5088789;27;20075;-77
2022/09/28 10:26:23;;;;;;;14.70;4.10;;;;;;;28.38;37.68;94269.31;5074394;27;20500;-80
2022/09/28 10:29:00;;;;;;;10.65;2.90;;;;;;;28.41;37.22;94245.91;5071946;27;20039;-78
2022/09/28 10:31:37;;;;;;;15.35;3.22;;;;;;;29.28;35.70;94301.63;5095014;27;20046;-77
2022/09/28 10:34:05;;;;;;;7.13;2.67;;;;;;;29.25;33.73;94299.72;5092562;27;20193;-79
2022/09/28 10:36:51;;;;;;;7.60;3.05;;;;;;;29.19;33.82;94255.72;5079091;27;20376;-78
2022/09/28 10:39:39;;;;;;;18.02;3.10;;;;;;;29.60;34.00;94296.41;5098071;27;20506;-79
2022/09/28 10:42:08;;;;;;;8.05;2.90;;;;;;;29.69;32.78;94295.88;5072733;28;20040;-77
2022/09/28 10:44:50;;;;;;;10.27;2.20;;;;;;;29.05;32.67;94212.28;5094328;27;20117;-80
2022/09/28 10:47:24;;;;;;;5.03;1.80;;;;;;;29.55;32.33;94245.78;5094981;27;20031;-81
2022/09/28 10:49:52;;;;;;;8.43;2.20;;;;;;;29.93;32.26;94290.03;5094627;28;20158;-78
2022/09/28 10:52:44;;;;;;;15.65;4.13;;;;;;;30.23;31.35;94277.34;5080435;28;20044;-78
2022/09/28 10:55:32;;;;;;;6.65;2.20;;;;;;;30.05;30.25;94274.19;5094413;27;20040;-78
2022/09/28 10:58:22;;;;;;;9.25;2.40;;;;;;;30.29;30.22;94264.72;5073629;27;20046;-79
2022/09/28 11:00:48;;;;;;;10.63;2.47;;;;;;;29.85;29.97;94214.78;5092109;27;20039;-79
2022/09/28 11:03:24;;;;;;;10.40;3.33;;;;;;;30.29;31.74;94268.22;5090778;27;20036;-80
2022/09/28 11:06:00;;;;;;;9.68;2.10;;;;;;;30.28;30.17;94219.44;5068895;27;20035;-79
2022/09/28 11:08:42;;;;;;;8.13;2.00;;;;;;;30.73;29.98;94257.22;5094583;28;20036;-78
2022/09/28 11:11:13;;;;;;;6.20;2.25;;;;;;;30.60;30.19;94230.47;5032723;28;20048;-78
2022/09/28 11:14:00;;;;;;;8.35;2.78;;;;;;;30.55;29.21;94224.75;5059684;28;20243;-82
2022/09/28 11:16:31;;;;;;;13.00;3.70;;;;;;;30.67;30.06;94188.50;5058511;28;20048;-80
2022/09/28 11:19:02;;;;;;;8.70;3.25;;;;;;;30.67;30.77;94196.72;5055779;28;20136;-78
2022/09/28 11:21:33;;;;;;;12.70;2.65;;;;;;;30.13;31.46;94130.69;5043247;28;20032;-77
2022/09/28 11:24:16;;;;;;;;;;;;;;;30.57;30.65;94253.25;5041187;28;20514;-76
2022/09/28 11:26:44;;;;;;;10.27;2.25;;;;;;;30.04;29.32;94215.25;5046732;28;20357;-78
2022/09/28 11:29:40;;;;;;;7.78;2.33;;;;;;;30.17;29.09;94216.16;5044822;28;20051;-77
2022/09/28 11:32:07;;;;;;;11.48;2.78;;;;;;;30.53;29.39;94232.59;5053129;28;20139;-77
2022/09/28 11:34:42;;;;;;;8.13;2.25;;;;;;;30.49;29.48;94220.94;5047974;28;20416;-78
2022/09/28 11:37:39;;;;;;;7.65;2.53;;;;;;;30.50;28.06;94212.34;5048733;28;20101;-78
2022/09/28 11:40:16;;;;;;;15.35;3.13;;;;;;;30.43;28.41;94208.97;5044470;28;20060;-78
2022/09/28 11:43:07;;;;;;;8.05;1.95;;;;;;;30.46;28.15;94219.03;5046315;28;20034;-79
2022/09/28 11:45:38;;;;;;;9.33;1.77;;;;;;;30.30;27.69;94217.81;5047866;28;20351;-77
2022/09/28 11:48:15;;;;;;;6.47;2.13;;;;;;;30.64;27.31;94189.38;5047243;28;20480;-77
2022/09/28 11:50:51;;;;;;;8.02;1.67;;;;;;;31.03;27.19;94215.84;5048486;28;20048;-80